Time;durP1;ratioP1;P1;durP2;ratioP2;P2;SDS_P1;SDS_P2;PMS_P1;PMS_P2;Temp;Humidity;BMP_temperature;BMP_pressure;BME280_temperature;BME280_humidity;BME280_pressure;Samples;Min_cycle;Max_cycle;Signal;HPM_P1;HPM_P2
2024/03/21 08:52:35;;;;;;;;;;;;;;;;;;6196086;22;19957;-95
2024/03/21 08:55:00;;;;;;;;;;;;;;;;;;6248227;23;19935;-96
2024/03/21 09:54:10;;;;;;;;;;;;;;;;;;6195628;23;20370;-93
2024/03/21 09:56:35;;;;;;;;;;;;;;;;;;6223503;23;20355;-96
2024/03/21 09:59:00;;;;;;;;;;;;;;;;;;6229702;23;19908;-96
2024/03/21 10:01:26;;;;;;;;;;;;;;;;;;6223753;23;19951;-96
2024/03/21 10:03:53;;;;;;;;;;;;;;;;;;6226126;23;20227;-96
2024/03/21 10:06:19;;;;;;;;;;;;;;;;;;6222578;23;19908;-95
2024/03/21 10:08:44;;;;;;;;;;;;;;;;;;6222505;23;20314;-95
2024/03/21 10:11:10;;;;;;;;;;;;;;;;;;6222636;23;20339;-96
2024/03/21 10:13:37;;;;;;;;;;;;;;;;;;6222752;23;19911;-95
2024/03/21 10:16:02;;;;;;;;;;;;;;;;;;6224013;23;19907;-93
2024/03/21 10:18:28;;;;;;;;;;;;;;;;;;6222422;23;19939;-95
2024/03/21 10:20:54;;;;;;;;;;;;;;;;;;6222227;23;19911;-94
2024/03/21 10:23:19;;;;;;;;;;;;;;;;;;6199496;23;19912;-95
2024/03/21 10:25:48;;;;;;;;;;;;;;;;;;6223789;23;19914;-93
2024/03/21 10:28:17;;;;;;;;;;;;;;;;;;6225960;23;19908;-96
2024/03/21 10:30:43;;;;;;;;;;;;;;;;;;6230783;23;19914;-95
2024/03/21 10:33:21;;;;;;;;;;;;;;;;;;6253362;23;19907;-96
2024/03/21 10:35:47;;;;;;;;;;;;;;;;;;6259456;23;19908;-96
2024/03/21 10:38:15;;;;;;;;;;;;;;;;;;6212651;23;19918;-96
2024/03/21 10:40:45;;;;;;;;;;;;;;;;;;6256529;23;19912;-96
2024/03/21 10:43:12;;;;;;;;;;;;;;;;;;6265266;23;19947;-96
2024/03/21 10:45:37;;;;;;;14.80;9.80;;;;;;;;;;6226904;23;19908;-94
2024/03/21 10:48:06;;;;;;;;;;;;;;;;;;6249111;23;20307;-96
2024/03/21 10:50:31;;;;;;;;;;;;;;;;;;6248774;23;20283;-95
2024/03/21 10:52:56;;;;;;;;;;;;;;;;;;6255680;23;19919;-96
2024/03/21 10:55:21;;;;;;;;;;;;;;;;;;6226486;23;19942;-96
2024/03/21 11:00:55;;;;;;;;;;;;;;;;;;6244672;22;19943;-95
2024/03/21 11:03:20;;;;;;;;;;;;;;;;;;6223264;23;19916;-95
2024/03/21 11:05:58;;;;;;;;;;;;;;;;;;6222907;23;19934;-95
2024/03/21 11:08:28;;;;;;;;;;;;;;;;;;6251769;23;19934;-96
2024/03/21 11:10:57;;;;;;;;;;;;;;;;;;6191987;23;19958;-96
2024/03/21 11:13:24;;;;;;;;;;;;;;;;;;6191795;23;19932;-96
2024/03/21 11:15:50;;;;;;;;;;;;;;;;;;6193486;23;20034;-94
2024/03/21 11:18:15;;;;;;;;;;;;;;;;;;6193265;23;20320;-96
2024/03/21 11:20:41;;;;;;;;;;;;;;;;;;6192057;23;19918;-95
2024/03/21 11:23:09;;;;;;;;;;;;;;;;;;6192091;23;19951;-94
2024/03/21 11:25:34;;;;;;;;;;;;;;;;;;6191671;23;19912;-94
2024/03/21 11:28:00;;;;;;;;;;;;;;;;;;6191999;23;19916;-95
2024/03/21 11:30:28;;;;;;;;;;;;;;;;;;6195444;23;19896;-91
2024/03/21 11:32:53;;;;;;;;;;;;;;;;;;6228722;23;20003;-96
2024/03/21 11:35:19;;;;;;;;;;;;;;;;;;6192166;23;19912;-96
2024/03/21 11:37:45;;;;;;;;;;;;;;;;;;6192458;23;19912;-95
2024/03/21 11:40:11;;;;;;;;;;;;;;;;;;6193669;23;19935;-96
2024/03/21 11:42:36;;;;;;;;;;;;;;;;;;6222718;23;19936;-96
2024/03/21 11:45:03;;;;;;;;;;;;;;;;;;6194512;23;19965;-96
2024/03/21 11:47:28;;;;;;;;;;;;;;;;;;6199562;23;20281;-96
2024/03/21 11:49:53;;;;;;;;;;;;;;;;;;6198077;23;19964;-95
2024/03/21 11:52:19;;;;;;;;;;;;;;;;;;6227897;23;19951;-95
2024/03/21 11:54:45;;;;;;;;;;;;;;;;;;6194734;23;19990;-93
2024/03/21 11:57:14;;;;;;;;;;;;;;;;;;6225886;23;19931;-92
2024/03/21 11:59:41;;;;;;;;;;;;;;;;;;6192363;23;20371;-93
2024/03/21 12:02:12;;;;;;;;;;;;;;;;;;6192387;23;19998;-94
2024/03/21 12:04:38;;;;;;;;;;;;;;;;;;6192006;23;20250;-94
2024/03/21 12:07:03;;;;;;;;;;;;;;;;;;6192324;23;20350;-94
2024/03/21 12:09:29;;;;;;;;;;;;;;;;;;6218665;23;19988;-93
2024/03/21 12:11:54;;;;;;;;;;;;;;;;;;6192053;23;19951;-94
2024/03/21 12:14:19;;;;;;;;;;;;;;;;;;6191564;23;19918;-95
2024/03/21 12:16:45;;;;;;;;;;;;;;;;;;6191912;23;19912;-94
2024/03/21 12:19:10;;;;;;;;;;;;;;;;;;6191509;23;19916;-94
2024/03/21 12:21:35;;;;;;;;;;;;;;;;;;6191409;23;20309;-94
2024/03/21 12:24:01;;;;;;;;;;;;;;;;;;6191464;23;19918;-95
2024/03/21 12:26:26;;;;;;;;;;;;;;;;;;6218024;23;19912;-95
2024/03/21 12:28:52;;;;;;;;;;;;;;;;;;6192064;23;20279;-95
2024/03/21 12:31:20;;;;;;;;;;;;;;;;;;6195234;23;19902;-92
2024/03/21 12:33:51;;;;;;;;;;;;;;;;;;6234861;23;19919;-92
2024/03/21 12:36:26;;;;;;;;;;;;;;;;;;6243158;22;19896;-91
2024/03/21 12:38:52;;;;;;;;;;;;;;;;;;6216582;23;19954;-91
2024/03/21 12:41:18;;;;;;;;;;;;;;;;;;6217447;23;19923;-92
2024/03/21 12:43:46;;;;;;;;;;;;;;;;;;6198463;23;19919;-90
2024/03/21 12:46:12;;;;;;;;;;;;;;;;;;6211642;23;19916;-89
2024/03/21 17:44:55;;;;;;;;;;;;;;;;;;6241973;23;19931;-89
2024/03/21 21:30:07;;;;;;;;;;;;;;;;;;6249460;22;19919;-93
2024/03/21 21:32:37;;;;;;;;;;;;;;;;;;6259853;22;19924;-94
2024/03/21 21:35:10;;;;;;;;;;;;;;;;;;6239868;22;19903;-92
2024/03/21 21:40:54;;;;;;;;;;;;;;;;;;6240862;22;19988;-94
2024/03/21 21:43:19;;;;;;;;;;;;;;;;;;6166234;23;19923;-92
2024/03/21 21:45:57;;;;;;;;;;;;;;;;;;6229769;23;19918;-92
2024/03/21 21:48:23;;;;;;;;;;;;;;;;;;6184937;23;20029;-92
2024/03/21 21:51:01;;;;;;;;;;;;;;;;;;6183137;23;19913;-93
2024/03/21 21:53:29;;;;;;;;;;;;;;;;;;6184155;23;19916;-92
2024/03/21 21:56:06;;;;;;;;;;;;;;;;;;6184539;23;19919;-92
2024/03/21 21:58:35;;;;;;;;;;;;;;;;;;6158719;23;19912;-92
2024/03/21 22:01:03;;;;;;;;;;;;;;;;;;6183482;23;19914;-94
2024/03/21 22:03:33;;;;;;;;;;;;;;;;;;6184735;23;19919;-93
2024/03/21 22:06:09;;;;;;;;;;;;;;;;;;6183106;23;19912;-93
2024/03/21 22:08:38;;;;;;;;;;;;;;;;;;6183735;23;19936;-93
2024/03/21 22:11:09;;;;;;;;;;;;;;;;;;6159839;23;19932;-93
2024/03/21 22:13:34;;;;;;;;;;;;;;;;;;6229133;23;19919;-93
2024/03/21 22:16:07;;;;;;;;;;;;;;;;;;6220946;23;19900;-94
2024/03/21 22:18:33;;;;;;;;;;;;;;;;;;6270307;23;19925;-92
2024/03/21 22:21:32;;;;;;;;;;;;;;;;;;6253951;23;20224;-93
2024/03/21 22:24:08;;;;;;;;;;;;;;;;;;6198831;23;19917;-93
2024/03/21 22:26:40;;;;;;;;;;;;;;;;;;6240341;23;19916;-93
2024/03/21 22:29:10;;;;;;;;;;;;;;;;;;6215387;23;19908;-91
2024/03/21 22:31:36;;;;;;;;;;;;;;;;;;6248212;22;19942;-93
2024/03/21 22:34:19;;;;;;;;;;;;;;;;;;6227666;22;19919;-92
2024/03/21 22:37:36;;;;;;;;;;;;;;;;;;6231074;22;19931;-93
2024/03/21 22:40:15;;;;;;;;;;;;;;;;;;6263053;23;19935;-92
2024/03/21 22:42:56;;;;;;;;;;;;;;;;;;6245509;23;19892;-92
2024/03/21 22:45:32;;;;;;;;;;;;;;;;;;6271771;22;19915;-93
2024/03/21 22:48:03;;;;;;;;;;;;;;;;;;6242805;22;19915;-93
2024/03/21 22:50:33;;;;;;;;;;;;;;;;;;6240476;23;19976;-94
2024/03/21 22:53:12;;;;;;;;;;;;;;;;;;6213790;23;19923;-93
2024/03/21 22:55:39;;;;;;;;;;;;;;;;;;6211666;23;20311;-92
2024/03/21 22:58:07;;;;;;;;;;;;;;;;;;6237631;23;19922;-93
2024/03/21 23:00:33;;;;;;;;;;;;;;;;;;6208998;23;19912;-93
2024/03/21 23:03:00;;;;;;;;;;;;;;;;;;6217520;23;19904;-92
2024/03/21 23:05:27;;;;;;;;;;;;;;;;;;6211934;23;20075;-92
2024/03/21 23:07:56;;;;;;;;;;;;;;;;;;6237211;23;19919;-92
2024/03/21 23:10:22;;;;;;;;;;;;;;;;;;6210879;23;19913;-92
2024/03/21 23:21:35;;;;;;;;;;;;;;;;;;6125758;23;19927;-92
2024/03/21 23:24:02;;;;;;;;;;;;;;;;;;6116642;23;19917;-91
2024/03/21 23:26:28;;;;;;;;;;;;;;;;;;6111289;23;20271;-91
2024/03/21 23:29:02;;;;;;;;;;;;;;;;;;6174371;23;19924;-91
2024/03/21 23:31:30;;;;;;;;;;;;;;;;;;6210748;23;19958;-92
